Time;durP1;ratioP1;P1;durP2;ratioP2;P2;SDS_P1;SDS_P2;PMS_P1;PMS_P2;Temp;Humidity;BMP_temperature;BMP_pressure;BME280_temperature;BME280_humidity;BME280_pressure;Samples;Min_cycle;Max_cycle;Signal;HPM_P1;HPM_P2
2023/10/12 00:02:13;;;;;;;8.23;1.70;;;30.70;44.00;;;;;;5006526;28;20034;-66
2023/10/12 00:04:43;;;;;;;10.10;1.40;;;30.80;43.00;;;;;;4998967;28;20026;-66
2023/10/12 00:07:25;;;;;;;2.38;1.30;;;30.70;42.40;;;;;;5004986;28;20034;-66
2023/10/12 00:12:47;;;;;;;5.95;2.03;;;31.00;42.60;;;;;;5006662;28;20084;-66
2023/10/12 00:15:23;;;;;;;5.95;1.50;;;30.80;42.80;;;;;;5008591;28;20386;-66
2023/10/12 00:17:55;;;;;;;13.05;1.85;;;31.30;42.00;;;;;;5003434;28;20470;-66
2023/10/12 00:23:09;;;;;;;8.95;1.60;;;31.40;40.30;;;;;;5005109;28;20046;-68
2023/10/12 00:25:47;;;;;;;4.57;1.35;;;31.60;39.40;;;;;;5009445;28;20033;-66
2023/10/12 00:28:19;;;;;;;5.88;1.25;;;32.10;38.90;;;;;;5003243;28;20026;-66
2023/10/12 00:30:49;;;;;;;4.30;1.35;;;32.20;38.20;;;;;;5011737;28;20056;-66
2023/10/12 00:33:20;;;;;;;6.55;1.30;;;32.20;38.80;;;;;;5008688;28;20084;-67
2023/10/12 00:35:52;;;;;;;4.47;1.23;;;32.50;38.30;;;;;;5008904;28;20040;-66
2023/10/12 00:38:23;;;;;;;2.88;0.93;;;32.50;38.60;;;;;;5002799;28;20034;-67
2023/10/12 00:40:59;;;;;;;6.60;1.40;;;32.60;37.80;;;;;;5010152;28;21451;-68
2023/10/12 00:51:40;;;;;;;2.22;1.52;;;32.70;36.20;;;;;;5001833;28;20052;-67
2023/10/12 00:54:10;;;;;;;7.35;1.38;;;32.90;36.70;;;;;;5005516;28;20025;-67
2023/10/12 00:56:43;;;;;;;4.32;1.35;;;33.20;36.00;;;;;;5008978;28;20026;-67
2023/10/12 00:59:15;;;;;;;3.38;1.17;;;33.40;35.90;;;;;;5002718;28;20043;-67
2023/10/12 01:01:42;;;;;;;4.80;1.13;;;33.40;34.90;;;;;;5005173;28;20030;-67
2023/10/12 01:04:15;;;;;;;6.03;1.70;;;33.20;35.30;;;;;;5005375;28;20470;-68
2023/10/12 01:06:47;;;;;;;5.30;1.63;;;33.80;34.70;;;;;;4999983;28;20030;-68
2023/10/12 01:09:21;;;;;;;3.88;1.00;;;33.90;35.70;;;;;;5003932;28;20113;-67
2023/10/12 01:11:58;;;;;;;3.50;1.23;;;34.30;35.10;;;;;;5003801;28;20048;-67
2023/10/12 01:14:27;;;;;;;4.00;1.15;;;34.60;34.70;;;;;;4998975;28;20035;-67
2023/10/12 01:16:58;;;;;;;2.17;1.52;;;34.80;34.60;;;;;;4996554;28;20036;-67
2023/10/12 01:19:31;;;;;;;3.45;1.17;;;35.40;35.40;;;;;;5000174;28;20364;-68
2023/10/12 01:22:47;;;;;;;1.95;1.30;;;36.00;34.00;;;;;;5006753;28;20125;-67
2023/10/12 01:27:27;;;;;;;4.40;1.35;;;35.80;34.20;;;;;;5000995;28;20034;-67
2023/10/12 01:30:29;;;;;;;3.47;1.10;;;35.10;31.50;;;;;;4999502;28;20116;-67
2023/10/12 01:32:57;;;;;;;3.55;1.00;;;35.10;33.80;;;;;;4994972;28;20049;-68
2023/10/12 01:35:49;;;;;;;5.45;1.33;;;35.30;31.60;;;;;;5000315;28;20026;-69
2023/10/12 01:38:15;;;;;;;4.70;1.20;;;35.60;31.20;;;;;;4997789;28;20041;-67
2023/10/12 01:40:54;;;;;;;4.03;1.35;;;36.20;31.90;;;;;;5009873;28;20498;-68
2023/10/12 01:43:22;;;;;;;3.72;1.10;;;36.50;31.10;;;;;;5006925;28;21184;-68
2023/10/12 01:45:59;;;;;;;3.70;0.95;;;36.60;29.60;;;;;;5003158;28;20033;-69
2023/10/12 01:48:33;;;;;;;4.25;1.00;;;36.50;29.70;;;;;;4998719;28;20502;-68
2023/10/12 01:51:10;;;;;;;3.53;1.08;;;36.50;31.10;;;;;;5003876;28;20035;-67
2023/10/12 01:53:40;;;;;;;4.13;1.10;;;36.90;29.90;;;;;;5011996;28;20026;-68
2023/10/12 01:56:10;;;;;;;2.92;1.33;;;36.40;30.10;;;;;;5001720;28;20034;-68
2023/10/12 01:58:44;;;;;;;3.47;1.25;;;36.40;30.00;;;;;;5009090;28;20049;-68
2023/10/12 02:01:18;;;;;;;1.58;0.93;;;36.70;28.60;;;;;;4990872;28;20034;-68
2023/10/12 02:03:47;;;;;;;5.45;1.10;;;36.40;28.40;;;;;;4991303;28;20037;-67
2023/10/12 02:06:16;;;;;;;2.55;0.90;;;35.90;28.90;;;;;;5006741;28;20714;-67
2023/10/12 02:12:09;;;;;;;2.65;1.10;;;35.70;28.90;;;;;;5000364;28;20057;-67
2023/10/12 02:14:01;;;;;;;1.83;0.90;;;35.80;28.40;;;;;;4996697;28;20053;-67
2023/10/12 02:16:31;;;;;;;2.33;1.00;;;35.90;28.60;;;;;;5007153;28;20113;-67
2023/10/12 02:19:04;;;;;;;2.72;1.00;;;36.40;29.00;;;;;;5007251;28;20105;-68
2023/10/12 02:21:40;;;;;;;4.88;1.20;;;36.60;29.30;;;;;;5002214;28;20030;-68
2023/10/12 02:26:37;;;;;;;3.35;0.93;;;36.70;27.70;;;;;;5002463;28;20117;-68
2023/10/12 02:29:17;;;;;;;3.83;1.05;;;36.80;27.50;;;;;;5001906;28;20029;-68
2023/10/12 02:34:32;;;;;;;5.95;1.10;;;37.00;27.90;;;;;;5004773;28;20035;-67
2023/10/12 02:39:41;;;;;;;2.00;1.00;;;36.80;27.70;;;;;;5007278;28;20038;-67
2023/10/12 02:42:17;;;;;;;1.50;1.00;;;36.50;27.80;;;;;;5005236;28;20033;-67
2023/10/12 02:47:39;;;;;;;1.80;1.15;;;36.00;28.10;;;;;;5005991;28;20194;-67
2023/10/12 02:52:43;;;;;;;1.90;0.88;;;35.70;27.70;;;;;;4995233;28;20073;-68
2023/10/12 02:58:17;;;;;;;2.50;1.10;;;35.50;27.80;;;;;;5001471;28;20038;-68
2023/10/12 03:00:54;;;;;;;2.60;1.23;;;36.10;28.10;;;;;;5002460;28;20080;-68
2023/10/12 03:05:52;;;;;;;3.72;0.93;;;36.60;27.80;;;;;;5003673;28;20042;-68
2023/10/12 03:08:22;;;;;;;5.70;1.10;;;36.40;28.10;;;;;;5003330;28;20034;-67
2023/10/12 03:11:08;;;;;;;2.22;1.00;;;36.40;27.90;;;;;;4997305;28;20056;-67
2023/10/12 03:13:38;;;;;;;4.93;1.30;;;36.20;28.30;;;;;;5006834;28;20149;-67
2023/10/12 03:18:38;;;;;;;4.07;1.05;;;35.70;28.50;;;;;;5004018;28;20030;-68
2023/10/12 03:21:11;;;;;;;1.38;0.90;;;36.00;28.60;;;;;;4998458;28;20414;-67
2023/10/12 03:23:40;;;;;;;6.10;0.90;;;36.10;27.80;;;;;;5005701;28;20026;-67
2023/10/12 03:26:26;;;;;;;2.15;0.93;;;35.90;28.20;;;;;;4984540;28;20073;-67
2023/10/12 03:29:02;;;;;;;7.50;1.13;;;35.80;28.00;;;;;;4981958;28;20035;-66
2023/10/12 03:37:14;;;;;;;6.32;1.15;;;36.00;27.80;;;;;;5007342;28;20034;-67
2023/10/12 03:42:58;;;;;;;2.47;1.30;;;36.10;27.60;;;;;;4997555;28;20493;-67
2023/10/12 03:45:23;;;;;;;3.28;1.00;;;36.10;27.80;;;;;;4989648;28;20053;-67
2023/10/12 03:48:04;;;;;;;5.03;1.10;;;36.50;27.90;;;;;;5009303;28;20049;-68
2023/10/12 03:50:53;;;;;;;2.45;1.00;;;36.40;27.40;;;;;;4998799;28;20442;-68
2023/10/12 03:53:26;;;;;;;11.05;1.00;;;36.40;27.40;;;;;;5003500;28;20439;-68
2023/10/12 03:55:58;;;;;;;3.25;0.90;;;36.00;26.80;;;;;;5000345;28;20128;-68
2023/10/12 03:58:26;;;;;;;3.95;1.05;;;35.60;27.20;;;;;;5003800;28;20050;-68
2023/10/12 04:03:42;;;;;;;4.77;1.17;;;35.80;27.60;;;;;;5001343;28;20037;-68
2023/10/12 04:06:23;;;;;;;3.15;1.02;;;35.80;27.20;;;;;;5005664;28;20034;-67
2023/10/12 04:08:59;;;;;;;2.42;1.20;;;35.70;27.10;;;;;;4998397;28;20037;-68
2023/10/12 04:14:22;;;;;;;4.60;1.02;;;35.70;27.40;;;;;;5001269;28;20095;-67
2023/10/12 04:16:57;;;;;;;2.33;1.30;;;35.80;27.40;;;;;;4980144;28;20088;-68
2023/10/12 04:19:32;;;;;;;3.15;1.00;;;36.00;27.60;;;;;;4994862;28;20045;-66
2023/10/12 04:22:23;;;;;;;2.15;1.23;;;36.30;27.20;;;;;;5004835;28;20472;-66
2023/10/12 04:24:48;;;;;;;3.15;1.00;;;35.80;27.20;;;;;;4997828;28;20471;-68
2023/10/12 04:27:38;;;;;;;5.10;1.10;;;35.70;27.60;;;;;;5006528;28;20501;-67
2023/10/12 04:31:12;;;;;;;2.40;1.20;;;35.60;27.30;;;;;;4997430;28;20394;-67
2023/10/12 04:43:40;;;;;;;1.85;1.08;;;35.30;27.70;;;;;;5007834;28;20045;-68
2023/10/12 04:48:41;;;;;;;3.47;1.10;;;35.20;28.10;;;;;;5012553;28;20026;-67
2023/10/12 04:51:18;;;;;;;2.58;1.00;;;35.30;27.80;;;;;;4999848;28;20048;-66
2023/10/12 04:54:05;;;;;;;2.33;1.00;;;35.10;27.60;;;;;;4992902;28;20025;-68
2023/10/12 04:56:38;;;;;;;;;;;35.00;28.10;;;;;;4999609;28;20034;-67
2023/10/12 04:59:16;;;;;;;2.30;1.10;;;35.10;27.70;;;;;;5004279;28;19932;-68
2023/10/12 05:02:15;;;;;;;2.45;1.10;;;34.80;27.90;;;;;;4995593;28;20040;-69
2023/10/12 05:09:52;;;;;;;2.45;0.90;;;34.80;28.00;;;;;;5003821;28;20483;-69
2023/10/12 05:12:23;;;;;;;1.20;1.08;;;34.00;28.20;;;;;;4989799;28;20038;-69
2023/10/12 05:14:55;;;;;;;4.13;1.10;;;33.90;28.40;;;;;;5005914;28;20026;-69
2023/10/12 05:17:25;;;;;;;2.53;0.90;;;33.80;28.30;;;;;;5007727;28;20032;-68
2023/10/12 05:19:53;;;;;;;4.82;1.10;;;34.00;28.50;;;;;;5002156;28;20057;-69
2023/10/12 05:22:21;;;;;;;2.13;1.30;;;34.30;28.50;;;;;;5003631;28;20026;-69
2023/10/12 05:24:48;;;;;;;4.25;1.05;;;34.20;28.50;;;;;;5006950;28;20026;-70
2023/10/12 05:28:05;;;;;;;2.78;1.02;;;33.90;28.60;;;;;;5006633;28;20026;-70
2023/10/12 05:30:19;;;;;;;5.40;1.00;;;33.70;28.90;;;;;;5009272;28;20037;-69
2023/10/12 05:32:55;;;;;;;;;;;33.60;28.80;;;;;;4999674;28;20044;-68
2023/10/12 05:35:49;;;;;;;5.05;1.10;;;33.60;28.70;;;;;;4985955;28;19945;-69
2023/10/12 05:38:11;;;;;;;5.18;1.10;;;33.90;29.00;;;;;;4996864;28;20045;-68
2023/10/12 05:40:42;;;;;;;3.60;1.00;;;34.40;28.40;;;;;;5004848;28;20615;-66
2023/10/12 05:43:21;;;;;;;3.45;0.95;;;34.50;27.60;;;;;;4997951;28;20692;-66
2023/10/12 05:45:49;;;;;;;1.80;0.90;;;34.10;27.60;;;;;;5003516;28;20026;-67
2023/10/12 05:48:19;;;;;;;2.22;0.95;;;33.80;27.50;;;;;;5001377;28;20421;-67
2023/10/12 05:50:53;;;;;;;4.32;1.00;;;33.80;28.10;;;;;;5001376;28;20034;-67
2023/10/12 05:53:21;;;;;;;5.35;1.20;;;33.60;27.70;;;;;;5008597;28;20068;-67
2023/10/12 05:55:48;;;;;;;4.63;1.20;;;33.40;27.70;;;;;;5007685;28;20026;-68
2023/10/12 05:58:16;;;;;;;2.95;1.05;;;33.30;27.80;;;;;;5006551;28;20061;-68
2023/10/12 06:00:52;;;;;;;10.30;1.20;;;33.20;27.50;;;;;;5001872;28;20181;-69
2023/10/12 06:03:23;;;;;;;6.50;1.03;;;33.40;27.60;;;;;;5005529;28;20018;-67
2023/10/12 06:05:51;;;;;;;1.33;1.00;;;33.70;27.60;;;;;;5005422;28;20729;-68
2023/10/12 06:08:20;;;;;;;5.22;1.00;;;33.60;27.70;;;;;;5002515;28;20108;-69
2023/10/12 06:10:48;;;;;;;3.95;1.20;;;33.90;27.40;;;;;;5001568;28;20157;-68
2023/10/12 06:13:16;;;;;;;4.15;1.38;;;34.10;27.60;;;;;;4999373;28;20558;-67
2023/10/12 06:15:49;;;;;;;2.72;1.02;;;34.20;27.60;;;;;;4997871;28;20026;-68
2023/10/12 06:18:30;;;;;;;2.05;1.05;;;34.30;27.20;;;;;;5001998;28;20402;-68
2023/10/12 06:20:58;;;;;;;4.00;1.13;;;34.30;27.60;;;;;;5004700;28;20099;-68
2023/10/12 06:23:27;;;;;;;3.97;1.10;;;34.10;27.70;;;;;;5007375;28;20442;-68
2023/10/12 06:25:55;;;;;;;2.30;1.00;;;34.00;27.90;;;;;;5010967;28;20484;-68
2023/10/12 06:28:23;;;;;;;3.08;1.10;;;34.10;27.90;;;;;;5000910;28;20121;-68
2023/10/12 06:30:52;;;;;;;3.03;1.17;;;34.00;27.70;;;;;;5007184;28;20030;-68
2023/10/12 06:33:22;;;;;;;3.65;1.10;;;33.90;27.80;;;;;;5002479;28;20052;-69
2023/10/12 06:35:58;;;;;;;3.40;1.10;;;33.80;27.90;;;;;;4996956;28;20018;-68
2023/10/12 06:38:39;;;;;;;;;;;33.70;28.00;;;;;;4998511;28;20022;-68
2023/10/12 06:46:46;;;;;;;4.78;1.40;;;33.90;28.30;;;;;;5003804;28;20041;-68
2023/10/12 06:49:23;;;;;;;4.13;1.58;;;33.60;28.20;;;;;;5008255;28;20080;-67
2023/10/12 06:52:01;;;;;;;3.03;1.50;;;33.60;28.20;;;;;;5005857;28;20073;-67
2023/10/12 06:54:39;;;;;;;3.13;1.00;;;33.20;28.20;;;;;;5004445;28;20044;-68
2023/10/12 07:02:33;;;;;;;2.53;1.30;;;32.80;28.80;;;;;;5002968;28;20041;-68
2023/10/12 07:05:04;;;;;;;3.15;1.10;;;32.80;28.80;;;;;;5006097;28;20034;-68
2023/10/12 07:07:41;;;;;;;2.03;1.27;;;32.80;28.80;;;;;;5006806;28;20391;-68
2023/10/12 07:12:47;;;;;;;5.45;1.23;;;32.80;29.10;;;;;;5001271;28;20133;-67
2023/10/12 07:15:23;;;;;;;4.32;1.30;;;32.80;29.20;;;;;;4995960;28;20030;-69
2023/10/12 07:17:51;;;;;;;3.33;1.30;;;32.70;29.30;;;;;;4993394;28;20084;-67
2023/10/12 07:22:57;;;;;;;2.78;0.93;;;32.80;29.50;;;;;;4989102;28;20073;-68
2023/10/12 07:25:26;;;;;;;6.88;1.52;;;32.70;29.70;;;;;;5006763;28;20034;-69
2023/10/12 07:27:59;;;;;;;3.67;1.23;;;32.70;29.60;;;;;;5002165;28;20417;-68
2023/10/12 07:30:42;;;;;;;1.75;1.13;;;32.50;29.60;;;;;;5005604;28;20095;-68
2023/10/12 07:33:10;;;;;;;1.73;1.08;;;32.30;30.00;;;;;;4991996;28;20053;-68
2023/10/12 07:35:42;;;;;;;6.47;1.30;;;32.20;29.90;;;;;;4982914;28;20026;-68
2023/10/12 07:38:25;;;;;;;5.20;1.38;;;32.10;29.90;;;;;;4999897;28;20509;-68
2023/10/12 07:43:23;;;;;;;3.03;1.10;;;31.80;30.00;;;;;;5001458;28;20026;-68
2023/10/12 07:45:54;;;;;;;4.78;1.30;;;31.60;30.20;;;;;;5000627;28;20030;-67
2023/10/12 07:48:31;;;;;;;4.60;1.38;;;31.40;30.00;;;;;;5006828;28;20034;-68
2023/10/12 07:51:19;;;;;;;4.30;1.20;;;31.30;30.30;;;;;;5000569;28;20176;-67
2023/10/12 07:53:51;;;;;;;5.53;1.80;;;31.10;30.20;;;;;;5001665;28;20030;-69
2023/10/12 07:56:22;;;;;;;4.88;1.20;;;31.20;30.40;;;;;;5004372;28;20390;-68
2023/10/12 07:58:57;;;;;;;5.20;1.33;;;31.20;30.30;;;;;;5006413;28;20045;-68
2023/10/12 08:03:58;;;;;;;5.85;1.17;;;31.10;30.20;;;;;;5001157;28;20031;-69
2023/10/12 08:12:30;;;;;;;4.05;1.20;;;31.10;30.30;;;;;;4915072;29;20047;-68
2023/10/12 08:15:08;;;;;;;7.15;1.25;;;30.90;30.60;;;;;;4908679;29;20467;-69
2023/10/12 08:17:35;;;;;;;4.32;1.33;;;30.80;30.50;;;;;;4976864;28;20052;-68
2023/10/12 08:22:57;;;;;;;2.85;1.17;;;30.70;31.00;;;;;;4999785;28;20037;-68
2023/10/12 08:25:37;;;;;;;10.23;1.23;;;30.50;31.30;;;;;;5008106;28;20026;-67
2023/10/12 08:28:18;;;;;;;5.70;1.35;;;30.40;31.30;;;;;;5010696;28;20033;-68
2023/10/12 08:30:57;;;;;;;4.07;1.25;;;30.30;31.30;;;;;;5006535;28;20027;-68
2023/10/12 08:33:48;;;;;;;3.75;1.10;;;30.60;31.20;;;;;;5008071;28;20037;-69
2023/10/12 08:38:54;;;;;;;19.38;2.08;;;29.70;36.50;;;;;;5009860;28;20533;-68
2023/10/12 08:43:59;;;;;;;13.10;2.47;;;28.20;49.00;;;;;;5005212;28;20046;-69
2023/10/12 08:52:07;;;;;;;7.65;1.40;;;25.30;56.30;;;;;;5004845;28;20048;-68
2023/10/12 08:54:38;;;;;;;7.10;1.55;;;25.00;57.00;;;;;;4996656;28;20053;-69
2023/10/12 08:57:17;;;;;;;10.52;1.70;;;24.90;56.10;;;;;;5005794;28;20041;-69
2023/10/12 09:00:39;;;;;;;9.73;1.63;;;24.80;57.10;;;;;;5002892;28;20049;-68
2023/10/12 09:02:53;;;;;;;3.88;1.35;;;25.00;53.90;;;;;;5002299;28;20046;-68
2023/10/12 09:05:28;;;;;;;5.22;1.48;;;25.00;53.20;;;;;;5007552;28;20081;-68
2023/10/12 09:13:29;;;;;;;10.05;1.63;;;25.50;50.10;;;;;;5000930;28;20368;-68
2023/10/12 09:16:02;;;;;;;4.38;1.38;;;25.50;50.20;;;;;;5006875;28;20038;-68
2023/10/12 09:21:42;;;;;;;4.10;1.40;;;25.70;48.10;;;;;;4989625;28;20038;-68
2023/10/12 09:24:21;;;;;;;5.75;1.20;;;25.60;48.50;;;;;;5009703;28;20022;-67
2023/10/12 09:26:57;;;;;;;4.78;1.95;;;25.60;49.00;;;;;;4994318;28;20039;-68
2023/10/12 09:29:28;;;;;;;6.65;1.58;;;25.40;49.10;;;;;;5010292;28;20391;-66
2023/10/12 09:32:33;;;;;;;6.68;2.00;;;25.50;49.00;;;;;;5003502;28;20173;-67
2023/10/12 09:35:11;;;;;;;4.47;1.35;;;25.50;48.70;;;;;;5002368;28;20046;-66
2023/10/12 09:37:44;;;;;;;5.72;1.52;;;25.40;49.20;;;;;;5010949;28;20389;-67
2023/10/12 09:43:17;;;;;;;5.65;1.85;;;25.30;50.10;;;;;;4934556;29;20031;-65
2023/10/12 09:45:47;;;;;;;4.32;1.40;;;25.20;50.20;;;;;;4996477;28;20073;-65
2023/10/12 09:48:24;;;;;;;7.75;1.70;;;25.20;50.80;;;;;;5008762;28;20072;-64
2023/10/12 09:50:55;;;;;;;1.90;1.20;;;25.10;51.20;;;;;;5006517;28;20061;-65
2023/10/12 09:53:37;;;;;;;6.72;1.23;;;24.90;51.60;;;;;;5008277;28;20568;-63
2023/10/12 09:56:15;;;;;;;7.80;1.60;;;24.90;52.20;;;;;;5010555;28;20038;-65
2023/10/12 09:58:51;;;;;;;2.58;1.48;;;24.80;52.00;;;;;;5002349;28;20129;-65
2023/10/12 10:02:02;;;;;;;6.65;1.40;;;24.80;52.20;;;;;;5003788;28;20044;-64
2023/10/12 10:07:25;;;;;;;7.43;1.70;;;24.50;54.20;;;;;;5008367;28;20422;-65
2023/10/12 10:09:56;;;;;;;6.55;1.48;;;24.20;55.50;;;;;;5010265;28;20033;-63
2023/10/12 10:12:27;;;;;;;6.93;1.30;;;24.00;56.60;;;;;;4988230;28;20435;-65
2023/10/12 10:15:10;;;;;;;4.43;1.30;;;23.70;57.20;;;;;;5006391;28;20117;-64
2023/10/12 10:17:47;;;;;;;5.40;1.42;;;23.40;56.20;;;;;;4988994;28;20034;-64
2023/10/12 10:23:11;;;;;;;5.75;1.48;;;22.50;56.50;;;;;;4997511;28;20038;-64
2023/10/12 10:25:46;;;;;;;7.15;1.30;;;22.00;57.00;;;;;;5005790;28;21369;-65
2023/10/12 10:28:26;;;;;;;4.35;1.10;;;21.80;56.90;;;;;;5004656;28;20030;-64
2023/10/12 10:30:59;;;;;;;4.68;1.20;;;21.50;57.30;;;;;;5004447;28;20505;-63
2023/10/12 10:33:28;;;;;;;6.63;1.10;;;21.30;57.50;;;;;;4984287;28;20097;-65
2023/10/12 10:36:25;;;;;;;4.78;1.30;;;21.10;57.70;;;;;;5005630;28;20034;-66
2023/10/12 10:38:56;;;;;;;5.72;1.50;;;21.00;57.30;;;;;;4996524;28;20124;-65
2023/10/12 10:44:15;;;;;;;2.97;0.85;;;20.90;57.40;;;;;;5001500;28;20126;-64
2023/10/12 10:46:48;;;;;;;7.05;1.23;;;20.60;57.60;;;;;;5003595;28;20526;-64
2023/10/12 10:49:17;;;;;;;6.53;1.23;;;20.50;58.10;;;;;;5000961;28;20037;-64
2023/10/12 10:51:50;;;;;;;4.60;1.00;;;20.50;58.60;;;;;;5008092;28;20185;-64
2023/10/12 10:54:20;;;;;;;6.53;1.35;;;20.50;58.70;;;;;;5000232;28;20541;-65
2023/10/12 10:56:48;;;;;;;4.55;0.90;;;20.50;59.20;;;;;;5006976;28;20026;-65
2023/10/12 10:59:19;;;;;;;3.85;1.20;;;20.50;59.30;;;;;;4996102;28;20049;-64
2023/10/12 11:01:51;;;;;;;5.25;1.35;;;20.30;59.90;;;;;;4985295;28;20077;-67
2023/10/12 11:04:55;;;;;;;5.35;1.17;;;20.30;60.40;;;;;;4999810;28;20036;-68
2023/10/12 11:07:18;;;;;;;4.55;0.95;;;20.10;60.80;;;;;;4989393;28;20105;-67
2023/10/12 11:12:36;;;;;;;1.13;0.55;;;20.10;59.20;;;;;;5001343;28;20049;-68
2023/10/12 11:15:09;;;;;;;2.42;0.60;;;19.90;58.40;;;;;;5002801;28;20026;-68
2023/10/12 11:17:55;;;;;;;3.40;0.75;;;19.80;57.80;;;;;;5002285;28;20464;-68
2023/10/12 11:23:08;;;;;;;1.13;0.30;;;19.70;57.70;;;;;;4997409;28;20056;-67
2023/10/12 11:25:43;;;;;;;0.73;0.40;;;19.60;57.50;;;;;;5007428;28;20036;-67
2023/10/12 11:28:37;;;;;;;0.95;0.40;;;19.60;57.00;;;;;;5004581;28;20033;-68
2023/10/12 11:31:20;;;;;;;1.90;0.28;;;19.70;56.00;;;;;;5001683;28;20144;-68
2023/10/12 11:33:51;;;;;;;1.40;0.43;;;19.70;56.00;;;;;;5007120;28;20048;-67
2023/10/12 11:36:24;;;;;;;2.10;0.38;;;19.70;55.50;;;;;;5002856;28;20030;-68
2023/10/12 11:39:03;;;;;;;1.50;0.30;;;19.70;55.40;;;;;;4996685;28;20038;-68
2023/10/12 11:41:31;;;;;;;2.00;0.40;;;19.80;54.60;;;;;;5003852;28;20041;-68
2023/10/12 11:44:05;;;;;;;2.28;0.32;;;19.80;54.40;;;;;;5004828;28;20474;-67
2023/10/12 11:46:45;;;;;;;2.63;0.30;;;19.80;54.30;;;;;;4991266;28;20517;-68
2023/10/12 11:49:13;;;;;;;1.33;0.40;;;19.80;54.30;;;;;;5002656;28;20037;-68
2023/10/12 11:51:53;;;;;;;1.23;0.30;;;19.70;54.40;;;;;;5010004;28;20164;-67
2023/10/12 11:54:21;;;;;;;1.13;0.40;;;19.70;50.30;;;;;;5003136;28;20025;-67
2023/10/12 11:56:51;;;;;;;0.90;0.40;;;19.60;49.40;;;;;;5010927;28;20030;-68
2023/10/12 11:59:30;;;;;;;1.65;0.30;;;19.50;48.70;;;;;;5008192;28;20133;-67
2023/10/12 12:02:07;;;;;;;3.03;0.43;;;19.60;48.50;;;;;;5008632;28;20561;-67
2023/10/12 12:04:40;;;;;;;2.60;0.40;;;19.60;48.70;;;;;;4991291;28;20037;-67
2023/10/12 12:07:10;;;;;;;0.60;0.40;;;19.60;48.70;;;;;;5011228;28;20026;-67
2023/10/12 12:09:48;;;;;;;1.13;0.40;;;19.50;49.00;;;;;;4996567;28;20026;-67
2023/10/12 12:12:18;;;;;;;0.73;0.30;;;19.50;49.00;;;;;;5000833;28;20038;-67
2023/10/12 12:14:48;;;;;;;1.90;0.25;;;19.40;48.10;;;;;;4995036;28;20080;-67
2023/10/12 12:17:16;;;;;;;3.25;0.50;;;19.40;48.20;;;;;;5008254;28;20389;-66
2023/10/12 12:19:44;;;;;;;2.33;0.40;;;19.40;47.00;;;;;;4995357;28;20022;-67
2023/10/12 12:22:13;;;;;;;2.17;0.55;;;19.30;48.00;;;;;;5002755;28;20064;-66
2023/10/12 12:24:46;;;;;;;1.00;0.40;;;19.20;49.30;;;;;;5007122;28;20076;-67
2023/10/12 12:30:23;;;;;;;0.57;0.30;;;19.00;49.00;;;;;;4987462;28;20038;-66
2023/10/12 12:32:50;;;;;;;1.55;0.47;;;18.90;49.20;;;;;;5003569;28;20060;-65
2023/10/12 12:35:19;;;;;;;2.30;0.77;;;18.80;50.30;;;;;;5001920;28;20494;-68
2023/10/12 12:37:46;;;;;;;1.92;0.38;;;18.70;51.90;;;;;;5008893;28;20080;-67
2023/10/12 12:40:39;;;;;;;2.38;0.52;;;18.60;53.80;;;;;;5003464;28;22383;-67
2023/10/12 12:43:01;;;;;;;1.27;0.60;;;18.50;53.70;;;;;;4999991;28;20041;-67
2023/10/12 12:45:30;;;;;;;1.05;0.55;;;18.20;54.50;;;;;;4992450;28;20022;-67
2023/10/12 12:47:57;;;;;;;1.70;0.50;;;18.10;56.10;;;;;;5005029;28;20026;-67
2023/10/12 12:50:28;;;;;;;2.83;0.50;;;17.90;57.50;;;;;;5008559;28;20138;-67
2023/10/12 12:52:57;;;;;;;0.57;0.30;;;17.80;60.90;;;;;;5010138;28;20115;-67
2023/10/12 12:55:32;;;;;;;1.38;0.50;;;17.70;62.70;;;;;;5012348;28;20254;-67
2023/10/12 12:57:59;;;;;;;2.85;0.70;;;17.40;64.90;;;;;;5011270;28;20037;-67
2023/10/12 13:00:29;;;;;;;2.75;0.52;;;17.40;66.00;;;;;;4993540;28;20116;-67
2023/10/12 13:03:00;;;;;;;2.17;0.50;;;17.50;66.30;;;;;;5010985;28;20026;-67
2023/10/12 13:05:31;;;;;;;1.73;0.60;;;17.60;65.90;;;;;;5009167;28;20068;-68
2023/10/12 13:08:00;;;;;;;1.50;0.32;;;17.40;66.80;;;;;;5011364;28;20474;-66
2023/10/12 13:10:27;;;;;;;1.15;0.40;;;17.30;67.60;;;;;;4986840;28;20041;-67
2023/10/12 13:12:54;;;;;;;1.15;0.35;;;17.20;69.10;;;;;;5011214;28;20035;-66
2023/10/12 13:15:23;;;;;;;1.73;0.50;;;17.40;69.10;;;;;;5007735;28;20390;-68
2023/10/12 13:17:51;;;;;;;2.75;1.15;;;17.70;68.50;;;;;;5008305;28;21136;-67
2023/10/12 13:20:21;;;;;;;1.83;0.43;;;17.70;69.00;;;;;;5007035;28;20776;-68
2023/10/12 13:22:50;;;;;;;2.67;0.50;;;17.50;69.60;;;;;;5005857;28;20109;-69
2023/10/12 13:25:21;;;;;;;1.40;0.40;;;17.30;71.20;;;;;;5008059;28;20044;-68
2023/10/12 13:27:49;;;;;;;0.85;0.30;;;17.20;72.30;;;;;;5008969;28;20030;-67
2023/10/12 13:30:17;;;;;;;1.40;0.40;;;17.10;68.60;;;;;;5005433;28;20037;-68
2023/10/12 13:32:50;;;;;;;2.10;0.47;;;16.90;68.00;;;;;;5012107;28;20038;-68
2023/10/12 13:35:18;;;;;;;1.30;0.40;;;16.80;68.80;;;;;;5012828;28;20513;-68
2023/10/12 13:37:46;;;;;;;3.58;0.60;;;16.70;68.60;;;;;;5004864;28;20485;-68
2023/10/12 13:40:17;;;;;;;1.40;0.50;;;16.60;70.10;;;;;;5009763;28;20517;-66
2023/10/12 13:42:45;;;;;;;1.15;0.40;;;16.90;67.80;;;;;;4994156;28;20483;-68
2023/10/12 13:45:12;;;;;;;1.50;0.38;;;16.80;68.70;;;;;;5008381;28;20041;-68
2023/10/12 13:47:43;;;;;;;2.05;0.60;;;16.80;67.20;;;;;;5013386;28;20030;-67
2023/10/12 13:50:10;;;;;;;2.67;0.50;;;16.70;68.10;;;;;;4994037;28;20030;-67
2023/10/12 13:52:42;;;;;;;4.15;0.43;;;16.70;68.00;;;;;;5003658;28;20089;-68
2023/10/12 13:55:14;;;;;;;2.47;0.52;;;16.60;67.60;;;;;;5010198;28;20040;-68
2023/10/12 13:57:57;;;;;;;3.70;0.55;;;16.60;66.80;;;;;;5008178;28;20033;-67
2023/10/12 14:00:33;;;;;;;3.83;0.80;;;16.70;66.30;;;;;;5008190;28;20038;-67
2023/10/12 14:03:10;;;;;;;1.35;0.40;;;16.60;66.10;;;;;;5000046;28;20027;-68
2023/10/12 14:05:41;;;;;;;2.73;0.77;;;16.50;66.30;;;;;;5010929;28;20363;-68
2023/10/12 14:08:12;;;;;;;0.90;0.30;;;16.60;65.70;;;;;;5003974;28;20044;-68
2023/10/12 14:10:44;;;;;;;2.25;0.40;;;16.60;65.20;;;;;;4999598;28;20482;-68
2023/10/12 14:13:13;;;;;;;1.95;0.35;;;16.50;65.00;;;;;;5005113;28;20049;-67
2023/10/12 14:15:44;;;;;;;2.70;0.60;;;16.50;64.40;;;;;;5006295;28;20495;-67
2023/10/12 14:18:16;;;;;;;1.13;0.35;;;16.40;64.50;;;;;;5006931;28;20026;-67
2023/10/12 14:20:44;;;;;;;1.60;0.50;;;16.50;63.20;;;;;;5006381;28;20029;-67
2023/10/12 14:23:13;;;;;;;1.15;0.40;;;16.30;62.50;;;;;;5006090;28;20119;-67
2023/10/12 14:25:43;;;;;;;1.85;0.22;;;16.20;62.10;;;;;;5006963;28;20021;-67
2023/10/12 14:28:17;;;;;;;1.92;0.40;;;16.20;62.20;;;;;;4990833;28;20063;-66
2023/10/12 14:30:50;;;;;;;3.88;0.40;;;16.10;61.20;;;;;;5009567;28;20076;-68
2023/10/12 14:33:19;;;;;;;1.65;0.45;;;16.10;60.40;;;;;;5008662;28;20042;-67
2023/10/12 14:35:48;;;;;;;3.00;0.32;;;16.00;61.20;;;;;;5012216;28;20385;-67
2023/10/12 14:38:17;;;;;;;0.88;0.20;;;15.90;61.00;;;;;;5012571;28;20030;-67
2023/10/12 14:40:45;;;;;;;1.75;0.38;;;15.90;59.80;;;;;;5011923;28;20028;-67
2023/10/12 14:43:14;;;;;;;2.53;0.50;;;15.90;59.30;;;;;;5010834;28;20041;-68
2023/10/12 14:46:10;;;;;;;3.35;0.35;;;15.90;59.50;;;;;;5010303;28;20029;-67
2023/10/12 14:48:38;;;;;;;1.00;0.32;;;15.90;58.70;;;;;;5002303;28;20034;-67
2023/10/12 14:51:13;;;;;;;0.63;0.30;;;15.80;59.00;;;;;;5005576;28;20041;-66
2023/10/12 14:53:44;;;;;;;3.03;0.50;;;15.80;58.70;;;;;;5008990;28;20120;-68
2023/10/12 14:56:15;;;;;;;0.95;0.20;;;15.70;58.80;;;;;;5006811;28;20491;-66
2023/10/12 14:58:43;;;;;;;1.58;0.30;;;15.70;58.90;;;;;;5004772;28;20141;-68
2023/10/12 15:01:14;;;;;;;2.40;0.40;;;15.70;59.00;;;;;;5008783;28;20316;-68
2023/10/12 15:03:45;;;;;;;3.08;0.30;;;15.60;59.50;;;;;;5007885;28;20072;-68
2023/10/12 15:06:16;;;;;;;3.35;0.63;;;15.50;59.50;;;;;;4992944;28;20379;-68
2023/10/12 15:08:44;;;;;;;2.08;0.68;;;15.50;59.30;;;;;;4988715;28;20038;-70
2023/10/12 15:11:11;;;;;;;4.18;0.30;;;15.50;58.80;;;;;;5007464;28;20488;-67
2023/10/12 15:13:40;;;;;;;1.13;0.22;;;15.60;58.70;;;;;;5009317;28;20041;-67
2023/10/12 15:16:11;;;;;;;1.55;0.30;;;15.70;58.40;;;;;;5010927;28;20088;-68
2023/10/12 15:18:41;;;;;;;2.67;0.60;;;15.60;57.70;;;;;;5007422;28;20034;-68
2023/10/12 15:21:12;;;;;;;2.45;0.22;;;15.50;58.40;;;;;;5007779;28;20023;-68
2023/10/12 15:23:40;;;;;;;1.75;0.47;;;15.50;58.10;;;;;;5008495;28;20108;-67
2023/10/12 15:26:07;;;;;;;2.08;0.20;;;15.50;58.20;;;;;;5011387;28;20038;-68
2023/10/12 15:28:36;;;;;;;1.73;0.45;;;15.50;58.60;;;;;;5007952;28;20030;-67
2023/10/12 15:31:04;;;;;;;1.00;0.20;;;15.50;58.60;;;;;;5010709;28;20033;-68
2023/10/12 15:33:31;;;;;;;1.65;0.52;;;15.40;59.50;;;;;;5010079;28;20033;-68
2023/10/12 15:35:59;;;;;;;2.30;0.20;;;15.30;59.60;;;;;;5010537;28;20038;-68
2023/10/12 15:38:32;;;;;;;1.55;0.30;;;15.30;59.40;;;;;;5006256;28;20084;-67
2023/10/12 15:41:00;;;;;;;1.60;0.20;;;15.30;59.80;;;;;;5006636;28;20083;-68
2023/10/12 15:43:28;;;;;;;3.78;0.52;;;15.30;60.10;;;;;;4986800;28;20386;-66